Wetterdaten: Woche 24.09.12 - 30.09.12 (KW39)
Datum Zeit Temperatur Luftfeuchte Luftdruck Niederschlag Windrichtung Sonnenschein Solar Wind
24.09.2012 00:00 12,4 C 94 % 1004,8 hPa 0,0 l/m N 0,00 h 0 W/m 0,1 km/h (0 Bft)
24.09.2012 01:00 11,6 C 94 % 1004,0 hPa 0,0 l/m O-NO 0,00 h 0 W/m 0,7 km/h (0 Bft)
24.09.2012 02:00 11,5 C 95 % 1003,5 hPa 0,0 l/m O-NO 0,00 h 0 W/m 3,9 km/h (1 Bft)
24.09.2012 03:00 11,3 C 96 % 1002,7 hPa 0,0 l/m O-NO 0,00 h 0 W/m 4,8 km/h (1 Bft)
24.09.2012 04:00 11,0 C 96 % 1001,9 hPa 0,0 l/m O-NO 0,00 h 0 W/m 2,0 km/h (1 Bft)
24.09.2012 05:00 10,7 C 96 % 1000,8 hPa 0,0 l/m O-NO 0,00 h 0 W/m 1,7 km/h (1 Bft)
24.09.2012 06:00 10,3 C 97 % 1000,2 hPa 0,0 l/m N 0,00 h 0 W/m 7,8 km/h (2 Bft)
24.09.2012 07:00 9,9 C 97 % 999,5 hPa 0,2 l/m N-NW 0,00 h 19 W/m 9,5 km/h (2 Bft)
24.09.2012 08:00 10,3 C 98 % 999,1 hPa 0,0 l/m N-NW 0,00 h 41 W/m 4,3 km/h (1 Bft)
24.09.2012 09:00 11,2 C 98 % 999,9 hPa 0,0 l/m N-NW 0,00 h 76 W/m 7,4 km/h (2 Bft)
24.09.2012 10:00 13,0 C 97 % 1001,5 hPa 0,0 l/m W-SW 0,00 h 95 W/m 12,7 km/h (3 Bft)
24.09.2012 11:00 14,3 C 95 % 1002,0 hPa 0,6 l/m SW 0,00 h 127 W/m 12,4 km/h (3 Bft)
24.09.2012 12:00 15,0 C 96 % 1001,8 hPa 0,0 l/m S-SW 0,00 h 183 W/m 17,2 km/h (3 Bft)
24.09.2012 13:00 15,7 C 93 % 1001,2 hPa 0,0 l/m SW 0,00 h 178 W/m 19,4 km/h (3 Bft)
24.09.2012 14:00 16,8 C 90 % 1001,1 hPa 0,0 l/m SW 0,33 h 335 W/m 20,4 km/h (4 Bft)
24.09.2012 15:00 17,3 C 87 % 1001,1 hPa 0,0 l/m SW 0,00 h 154 W/m 17,6 km/h (3 Bft)
24.09.2012 16:00 16,7 C 88 % 1001,5 hPa 0,0 l/m SW 0,00 h 91 W/m 16,9 km/h (3 Bft)
24.09.2012 17:00 16,5 C 84 % 1002,4 hPa 0,0 l/m W-SW 0,00 h 59 W/m 27,0 km/h (4 Bft)
24.09.2012 18:00 16,0 C 79 % 1002,9 hPa 0,0 l/m W 0,50 h 64 W/m 24,0 km/h (4 Bft)
24.09.2012 19:00 15,4 C 76 % 1003,7 hPa 0,0 l/m W-SW 0,08 h 11 W/m 23,6 km/h (4 Bft)
24.09.2012 20:00 14,7 C 76 % 1004,4 hPa 0,0 l/m W-SW 0,00 h 0 W/m 21,2 km/h (4 Bft)
24.09.2012 21:00 13,8 C 78 % 1005,2 hPa 0,0 l/m W-SW 0,00 h 0 W/m 14,6 km/h (3 Bft)
24.09.2012 22:00 12,6 C 80 % 1005,5 hPa 0,0 l/m W-SW 0,00 h 0 W/m 9,7 km/h (2 Bft)
24.09.2012 23:00 11,5 C 83 % 1005,6 hPa 0,0 l/m W-SW 0,00 h 0 W/m 4,8 km/h (1 Bft)
25.09.2012 00:00 10,4 C 86 % 1005,6 hPa 0,0 l/m N 0,00 h 0 W/m 1,2 km/h (1 Bft)
25.09.2012 01:00 9,6 C 88 % 1005,5 hPa 0,0 l/m N 0,00 h 0 W/m 0,3 km/h (0 Bft)
25.09.2012 02:00 8,8 C 90 % 1005,6 hPa 0,0 l/m N 0,00 h 0 W/m 2,3 km/h (1 Bft)
25.09.2012 03:00 8,8 C 94 % 1005,2 hPa 0,0 l/m W-SW 0,00 h 0 W/m 6,1 km/h (2 Bft)
25.09.2012 04:00 9,1 C 95 % 1004,6 hPa 0,0 l/m W-SW 0,00 h 0 W/m 3,9 km/h (1 Bft)
25.09.2012 05:00 9,2 C 96 % 1004,2 hPa 0,0 l/m W-SW 0,00 h 0 W/m 8,0 km/h (2 Bft)
25.09.2012 06:00 9,5 C 95 % 1004,1 hPa 0,0 l/m W-SW 0,00 h 0 W/m 5,9 km/h (2 Bft)
25.09.2012 07:00 8,9 C 94 % 1003,9 hPa 0,0 l/m N 0,00 h 17 W/m 1,3 km/h (1 Bft)
25.09.2012 08:00 9,0 C 96 % 1003,7 hPa 0,0 l/m W-SW 0,50 h 121 W/m 3,3 km/h (1 Bft)
25.09.2012 09:00 11,8 C 92 % 1003,4 hPa 0,0 l/m SW 0,92 h 284 W/m 6,0 km/h (2 Bft)
25.09.2012 10:00 14,9 C 82 % 1003,0 hPa 0,0 l/m SW 1,00 h 411 W/m 9,4 km/h (2 Bft)
25.09.2012 11:00 18,6 C 62 % 1002,5 hPa 0,0 l/m S-SO 1,00 h 572 W/m 13,6 km/h (3 Bft)
25.09.2012 12:00 20,0 C 54 % 1002,5 hPa 0,0 l/m S-SW 1,00 h 473 W/m 12,9 km/h (3 Bft)
25.09.2012 13:00 20,3 C 51 % 1001,9 hPa 0,0 l/m SW 0,67 h 401 W/m 9,3 km/h (2 Bft)
25.09.2012 14:00 21,3 C 46 % 1001,2 hPa 0,0 l/m SW 1,00 h 580 W/m 9,3 km/h (2 Bft)
25.09.2012 15:00 21,4 C 45 % 1001,1 hPa 0,0 l/m W-NW 0,92 h 474 W/m 7,1 km/h (2 Bft)
25.09.2012 16:00 20,8 C 50 % 1001,3 hPa 0,0 l/m N-NW 0,83 h 331 W/m 12,3 km/h (3 Bft)
25.09.2012 17:00 17,0 C 70 % 1001,6 hPa 0,0 l/m N-NO 0,33 h 143 W/m 18,5 km/h (3 Bft)
25.09.2012 18:00 14,9 C 77 % 1002,0 hPa 0,0 l/m N-NO 0,00 h 17 W/m 12,5 km/h (3 Bft)
25.09.2012 19:00 13,5 C 83 % 1002,1 hPa 0,0 l/m NO 0,00 h 5 W/m 4,4 km/h (1 Bft)
25.09.2012 20:00 12,8 C 86 % 1002,2 hPa 0,0 l/m N 0,00 h 0 W/m 1,7 km/h (1 Bft)
25.09.2012 21:00 12,2 C 89 % 1002,0 hPa 0,0 l/m N-NO 0,00 h 0 W/m 4,1 km/h (1 Bft)
25.09.2012 22:00 11,8 C 89 % 1001,5 hPa 0,0 l/m N 0,00 h 0 W/m 2,8 km/h (1 Bft)
25.09.2012 23:00 11,3 C 90 % 1001,0 hPa 0,0 l/m N 0,00 h 0 W/m 0,7 km/h (0 Bft)
26.09.2012 00:00 10,6 C 92 % 1000,8 hPa 0,0 l/m N-NO 0,00 h 0 W/m 3,9 km/h (1 Bft)
26.09.2012 01:00 10,3 C 93 % 1000,6 hPa 0,0 l/m N-NO 0,00 h 0 W/m 3,1 km/h (1 Bft)
26.09.2012 02:00 9,9 C 93 % 1000,4 hPa 0,0 l/m N-NO 0,00 h 0 W/m 3,3 km/h (1 Bft)
26.09.2012 03:00 9,5 C 94 % 999,7 hPa 0,0 l/m N 0,00 h 0 W/m 2,5 km/h (1 Bft)
26.09.2012 04:00 9,1 C 94 % 999,2 hPa 0,0 l/m N-NO 0,00 h 0 W/m 2,1 km/h (1 Bft)
26.09.2012 05:00 8,8 C 95 % 998,9 hPa 0,0 l/m N-NO 0,00 h 0 W/m 3,7 km/h (1 Bft)
26.09.2012 06:00 8,7 C 96 % 999,0 hPa 0,0 l/m N-NW 0,00 h 0 W/m 7,8 km/h (2 Bft)
26.09.2012 07:00 8,2 C 96 % 999,5 hPa 0,0 l/m N-NW 0,00 h 19 W/m 4,7 km/h (1 Bft)
26.09.2012 08:00 8,3 C 96 % 999,7 hPa 0,0 l/m N-NW 0,00 h 50 W/m 5,1 km/h (1 Bft)
26.09.2012 09:00 9,9 C 96 % 1000,1 hPa 0,0 l/m N 0,50 h 224 W/m 6,5 km/h (2 Bft)
26.09.2012 10:00 12,7 C 89 % 1000,1 hPa 0,0 l/m N 0,67 h 336 W/m 5,1 km/h (1 Bft)
26.09.2012 11:00 15,9 C 80 % 1000,0 hPa 0,0 l/m N 0,92 h 468 W/m 4,1 km/h (1 Bft)
26.09.2012 12:00 18,1 C 71 % 1000,1 hPa 0,0 l/m N 0,17 h 275 W/m 4,3 km/h (1 Bft)
26.09.2012 13:00 19,8 C 62 % 1000,0 hPa 0,0 l/m N 0,92 h 549 W/m 6,3 km/h (2 Bft)
26.09.2012 14:00 20,5 C 61 % 999,9 hPa 0,0 l/m O-NO 0,25 h 278 W/m 7,1 km/h (2 Bft)
26.09.2012 15:00 20,6 C 60 % 999,8 hPa 0,0 l/m NO 0,42 h 309 W/m 9,5 km/h (2 Bft)
26.09.2012 16:00 20,2 C 61 % 999,6 hPa 0,0 l/m N-NO 0,58 h 283 W/m 9,4 km/h (2 Bft)
26.09.2012 17:00 19,8 C 66 % 999,9 hPa 0,0 l/m NO 0,42 h 129 W/m 10,1 km/h (2 Bft)
26.09.2012 18:00 17,5 C 75 % 1001,0 hPa 0,0 l/m N 0,00 h 16 W/m 17,7 km/h (3 Bft)
26.09.2012 19:00 15,0 C 82 % 1001,9 hPa 0,2 l/m NW 0,00 h 0 W/m 17,6 km/h (3 Bft)
26.09.2012 20:00 13,1 C 87 % 1002,8 hPa 0,0 l/m N-NW 0,00 h 0 W/m 15,7 km/h (3 Bft)
26.09.2012 21:00 12,3 C 90 % 1003,5 hPa 0,8 l/m N-NW 0,00 h 0 W/m 3,9 km/h (1 Bft)
26.09.2012 22:00 11,9 C 92 % 1003,6 hPa 0,0 l/m W-NW 0,00 h 0 W/m 5,8 km/h (1 Bft)
26.09.2012 23:00 11,2 C 93 % 1003,7 hPa 0,0 l/m NW 0,00 h 0 W/m 8,8 km/h (2 Bft)
27.09.2012 00:00 10,8 C 93 % 1003,9 hPa 0,2 l/m W-NW 0,00 h 0 W/m 5,5 km/h (1 Bft)
27.09.2012 01:00 10,3 C 94 % 1005,0 hPa 2,6 l/m W 0,00 h 0 W/m 15,3 km/h (3 Bft)
27.09.2012 02:00 9,4 C 95 % 1007,1 hPa 6,4 l/m W-SW 0,00 h 0 W/m 22,9 km/h (4 Bft)
27.09.2012 03:00 9,0 C 96 % 1007,6 hPa 2,2 l/m W-SW 0,00 h 0 W/m 13,1 km/h (3 Bft)
27.09.2012 04:00 8,9 C 96 % 1008,1 hPa 0,2 l/m W-SW 0,00 h 0 W/m 12,2 km/h (2 Bft)
27.09.2012 05:00 8,5 C 96 % 1008,5 hPa 0,0 l/m W-SW 0,00 h 0 W/m 14,0 km/h (3 Bft)
27.09.2012 06:00 7,7 C 95 % 1009,0 hPa 0,0 l/m W-SW 0,00 h 0 W/m 13,8 km/h (3 Bft)
27.09.2012 07:00 7,1 C 95 % 1009,4 hPa 0,0 l/m W-SW 0,00 h 10 W/m 5,1 km/h (1 Bft)
27.09.2012 08:00 7,1 C 96 % 1009,5 hPa 0,0 l/m S-SW 0,50 h 115 W/m 5,4 km/h (1 Bft)
27.09.2012 09:00 8,9 C 94 % 1010,1 hPa 0,0 l/m SW 0,58 h 210 W/m 12,6 km/h (3 Bft)
27.09.2012 10:00 11,0 C 88 % 1010,5 hPa 0,0 l/m SW 0,83 h 424 W/m 15,7 km/h (3 Bft)
27.09.2012 11:00 12,7 C 78 % 1010,4 hPa 0,0 l/m W-SW 1,00 h 582 W/m 25,9 km/h (4 Bft)
27.09.2012 12:00 13,7 C 73 % 1010,3 hPa 0,0 l/m W-SW 0,50 h 479 W/m 25,3 km/h (4 Bft)
27.09.2012 13:00 13,8 C 74 % 1010,4 hPa 0,0 l/m W-SW 0,17 h 271 W/m 21,3 km/h (4 Bft)
27.09.2012 14:00 13,9 C 73 % 1010,0 hPa 0,0 l/m W-SW 0,17 h 205 W/m 19,7 km/h (3 Bft)
27.09.2012 15:00 14,2 C 75 % 1009,9 hPa 0,0 l/m SW 0,33 h 320 W/m 16,1 km/h (3 Bft)
27.09.2012 16:00 14,7 C 75 % 1010,0 hPa 0,0 l/m S-SW 0,50 h 236 W/m 14,9 km/h (3 Bft)
27.09.2012 17:00 14,1 C 78 % 1010,2 hPa 0,0 l/m SW 0,58 h 175 W/m 13,8 km/h (3 Bft)
27.09.2012 18:00 13,5 C 82 % 1011,1 hPa 0,0 l/m SW 0,33 h 48 W/m 12,2 km/h (2 Bft)
27.09.2012 19:00 12,8 C 75 % 1012,7 hPa 0,0 l/m W-NW 0,00 h 0 W/m 18,2 km/h (3 Bft)
27.09.2012 20:00 12,2 C 75 % 1013,8 hPa 0,0 l/m W-SW 0,00 h 0 W/m 14,2 km/h (3 Bft)
27.09.2012 21:00 11,6 C 76 % 1015,0 hPa 0,0 l/m W-SW 0,00 h 0 W/m 20,5 km/h (4 Bft)
27.09.2012 22:00 11,0 C 80 % 1015,9 hPa 0,0 l/m W-SW 0,00 h 0 W/m 13,8 km/h (3 Bft)
27.09.2012 23:00 10,2 C 85 % 1016,4 hPa 0,0 l/m SW 0,00 h 0 W/m 12,6 km/h (3 Bft)
28.09.2012 00:00 10,4 C 85 % 1016,8 hPa 0,0 l/m W-SW 0,00 h 0 W/m 14,9 km/h (3 Bft)
28.09.2012 01:00 10,3 C 85 % 1017,2 hPa 0,0 l/m W-SW 0,00 h 0 W/m 13,0 km/h (3 Bft)
28.09.2012 02:00 9,4 C 88 % 1017,9 hPa 0,0 l/m SW 0,00 h 0 W/m 12,4 km/h (3 Bft)
28.09.2012 03:00 8,9 C 90 % 1018,2 hPa 0,0 l/m SW 0,00 h 0 W/m 13,0 km/h (3 Bft)
28.09.2012 04:00 8,8 C 91 % 1018,2 hPa 0,0 l/m W-SW 0,00 h 0 W/m 10,8 km/h (2 Bft)
28.09.2012 05:00 8,4 C 93 % 1018,1 hPa 0,0 l/m W-SW 0,00 h 0 W/m 9,5 km/h (2 Bft)
28.09.2012 06:00 7,9 C 92 % 1018,1 hPa 0,0 l/m W-SW 0,00 h 0 W/m 2,1 km/h (1 Bft)
28.09.2012 07:00 7,0 C 92 % 1018,4 hPa 0,0 l/m N 0,00 h 15 W/m 0,0 km/h (0 Bft)
28.09.2012 08:00 6,9 C 94 % 1018,7 hPa 0,0 l/m N 0,33 h 105 W/m 0,5 km/h (0 Bft)
28.09.2012 09:00 9,3 C 94 % 1018,8 hPa 0,0 l/m N 1,00 h 285 W/m 0,0 km/h (0 Bft)
28.09.2012 10:00 12,4 C 82 % 1018,8 hPa 0,0 l/m N 1,00 h 446 W/m 0,8 km/h (0 Bft)
28.09.2012 11:00 13,6 C 74 % 1018,8 hPa 0,0 l/m N 0,67 h 383 W/m 1,9 km/h (1 Bft)
28.09.2012 12:00 14,5 C 70 % 1018,7 hPa 0,0 l/m N 0,50 h 403 W/m 1,5 km/h (1 Bft)
28.09.2012 13:00 15,0 C 67 % 1018,3 hPa 0,0 l/m N 0,50 h 477 W/m 0,4 km/h (0 Bft)
28.09.2012 14:00 16,5 C 61 % 1017,5 hPa 0,0 l/m NO 0,83 h 598 W/m 5,4 km/h (1 Bft)
28.09.2012 15:00 17,4 C 58 % 1017,2 hPa 0,0 l/m W-SW 0,92 h 537 W/m 9,7 km/h (2 Bft)
28.09.2012 16:00 17,3 C 56 % 1016,8 hPa 0,0 l/m S 1,00 h 435 W/m 8,2 km/h (2 Bft)
28.09.2012 17:00 16,4 C 59 % 1016,2 hPa 0,0 l/m SO 1,00 h 244 W/m 6,1 km/h (2 Bft)
28.09.2012 18:00 14,0 C 76 % 1016,2 hPa 0,0 l/m N 0,33 h 37 W/m 1,2 km/h (1 Bft)
28.09.2012 19:00 12,4 C 80 % 1016,2 hPa 0,0 l/m N 0,00 h 6 W/m 0,8 km/h (0 Bft)
28.09.2012 20:00 10,9 C 82 % 1016,5 hPa 0,0 l/m N 0,00 h 0 W/m 0,8 km/h (0 Bft)
28.09.2012 21:00 9,6 C 86 % 1016,6 hPa 0,0 l/m N 0,00 h 0 W/m 0,8 km/h (0 Bft)
28.09.2012 22:00 8,8 C 89 % 1016,7 hPa 0,0 l/m N 0,00 h 0 W/m 2,1 km/h (1 Bft)
28.09.2012 23:00 8,6 C 91 % 1016,6 hPa 0,0 l/m N 0,00 h 0 W/m 1,5 km/h (1 Bft)
29.09.2012 00:00 8,2 C 92 % 1016,5 hPa 0,0 l/m N 0,00 h 0 W/m 1,1 km/h (0 Bft)
29.09.2012 01:00 7,6 C 92 % 1016,5 hPa 0,0 l/m N 0,00 h 0 W/m 0,0 km/h (0 Bft)
29.09.2012 02:00 6,9 C 92 % 1016,3 hPa 0,0 l/m N 0,00 h 0 W/m 0,0 km/h (0 Bft)
29.09.2012 03:00 6,5 C 92 % 1016,0 hPa 0,0 l/m N 0,00 h 0 W/m 0,0 km/h (0 Bft)
29.09.2012 04:00 6,4 C 94 % 1015,8 hPa 0,0 l/m N 0,00 h 0 W/m 0,0 km/h (0 Bft)
29.09.2012 05:00 7,0 C 95 % 1015,6 hPa 0,0 l/m N 0,00 h 0 W/m 0,3 km/h (0 Bft)
29.09.2012 06:00 7,2 C 96 % 1015,7 hPa 0,0 l/m N 0,00 h 0 W/m 0,1 km/h (0 Bft)
29.09.2012 07:00 7,4 C 96 % 1016,1 hPa 0,0 l/m N 0,00 h 13 W/m 0,8 km/h (0 Bft)
29.09.2012 08:00 8,3 C 96 % 1016,0 hPa 0,0 l/m N 0,00 h 48 W/m 0,8 km/h (0 Bft)
29.09.2012 09:00 9,2 C 96 % 1016,2 hPa 0,0 l/m N 0,00 h 71 W/m 1,2 km/h (1 Bft)
29.09.2012 10:00 10,7 C 93 % 1016,2 hPa 0,0 l/m W-NW 0,00 h 91 W/m 2,4 km/h (1 Bft)
29.09.2012 11:00 11,2 C 94 % 1016,4 hPa 0,4 l/m W-NW 0,00 h 71 W/m 2,8 km/h (1 Bft)
29.09.2012 12:00 11,7 C 95 % 1016,3 hPa 0,8 l/m W-NW 0,00 h 75 W/m 3,9 km/h (1 Bft)
29.09.2012 13:00 11,7 C 96 % 1016,1 hPa 1,0 l/m W 0,00 h 69 W/m 5,5 km/h (1 Bft)
29.09.2012 14:00 11,8 C 97 % 1015,8 hPa 0,8 l/m W 0,00 h 53 W/m 3,2 km/h (1 Bft)
29.09.2012 15:00 11,9 C 97 % 1015,9 hPa 1,0 l/m SW 0,00 h 49 W/m 5,7 km/h (1 Bft)
29.09.2012 16:00 11,7 C 97 % 1016,4 hPa 1,0 l/m W-SW 0,00 h 44 W/m 4,9 km/h (1 Bft)
29.09.2012 17:00 11,6 C 97 % 1016,8 hPa 2,2 l/m W-SW 0,00 h 18 W/m 4,4 km/h (1 Bft)
29.09.2012 18:00 11,0 C 96 % 1016,7 hPa 1,6 l/m N 0,00 h 9 W/m 0,9 km/h (0 Bft)
29.09.2012 19:00 10,8 C 96 % 1017,2 hPa 0,0 l/m N 0,00 h 0 W/m 0,9 km/h (0 Bft)
29.09.2012 20:00 10,6 C 96 % 1017,8 hPa 0,0 l/m N 0,00 h 0 W/m 0,3 km/h (0 Bft)
29.09.2012 21:00 10,5 C 97 % 1018,3 hPa 0,0 l/m N 0,00 h 0 W/m 0,5 km/h (0 Bft)
29.09.2012 22:00 10,4 C 97 % 1018,7 hPa 0,0 l/m N 0,00 h 0 W/m 0,3 km/h (0 Bft)
29.09.2012 23:00 10,3 C 97 % 1018,8 hPa 0,0 l/m W-SW 0,00 h 0 W/m 2,0 km/h (1 Bft)
30.09.2012 00:00 10,1 C 97 % 1018,9 hPa 0,0 l/m N 0,00 h 0 W/m 1,5 km/h (1 Bft)
30.09.2012 01:00 10,0 C 97 % 1018,9 hPa 0,0 l/m N 0,00 h 0 W/m 1,7 km/h (1 Bft)
30.09.2012 02:00 9,9 C 97 % 1019,0 hPa 0,0 l/m W-SW 0,00 h 0 W/m 3,7 km/h (1 Bft)
30.09.2012 03:00 9,7 C 97 % 1019,1 hPa 0,0 l/m W-SW 0,00 h 0 W/m 3,5 km/h (1 Bft)
30.09.2012 04:00 9,1 C 97 % 1019,1 hPa 0,0 l/m W-SW 0,00 h 0 W/m 5,9 km/h (2 Bft)
30.09.2012 05:00 8,7 C 97 % 1019,2 hPa 0,0 l/m NW 0,00 h 0 W/m 6,4 km/h (2 Bft)
30.09.2012 06:00 8,7 C 97 % 1019,2 hPa 0,0 l/m N-NW 0,00 h 0 W/m 6,4 km/h (2 Bft)
30.09.2012 07:00 8,7 C 97 % 1019,0 hPa 0,0 l/m N-NO 0,00 h 9 W/m 11,7 km/h (2 Bft)
30.09.2012 08:00 8,6 C 98 % 1019,6 hPa 0,0 l/m N-NO 0,00 h 33 W/m 7,6 km/h (2 Bft)
30.09.2012 09:00 8,6 C 98 % 1020,1 hPa 0,0 l/m N-NO 0,00 h 63 W/m 9,3 km/h (2 Bft)
30.09.2012 10:00 8,9 C 97 % 1020,4 hPa 0,0 l/m NO 0,00 h 95 W/m 9,4 km/h (2 Bft)
30.09.2012 11:00 10,1 C 95 % 1020,0 hPa 0,0 l/m NO 0,08 h 141 W/m 12,8 km/h (3 Bft)
30.09.2012 12:00 10,5 C 94 % 1020,1 hPa 0,0 l/m NO 0,00 h 107 W/m 12,8 km/h (3 Bft)
30.09.2012 13:00 10,9 C 93 % 1019,8 hPa 0,0 l/m NO 0,00 h 122 W/m 15,8 km/h (3 Bft)
30.09.2012 14:00 11,4 C 90 % 1019,7 hPa 0,0 l/m O-NO 0,00 h 118 W/m 17,2 km/h (3 Bft)
30.09.2012 15:00 11,7 C 90 % 1019,6 hPa 0,0 l/m O-NO 0,00 h 87 W/m 13,6 km/h (3 Bft)
30.09.2012 16:00 11,7 C 91 % 1019,3 hPa 0,0 l/m NO 0,00 h 43 W/m 10,9 km/h (2 Bft)
30.09.2012 17:00 11,4 C 92 % 1019,2 hPa 0,0 l/m NO 0,00 h 23 W/m 9,3 km/h (2 Bft)
30.09.2012 18:00 11,3 C 93 % 1019,2 hPa 0,0 l/m O-NO 0,00 h 9 W/m 6,5 km/h (2 Bft)
30.09.2012 19:00 11,1 C 94 % 1019,0 hPa 0,0 l/m O-NO 0,00 h 0 W/m 3,5 km/h (1 Bft)
30.09.2012 20:00 10,9 C 95 % 1018,9 hPa 0,0 l/m N 0,00 h 0 W/m 2,7 km/h (1 Bft)
30.09.2012 21:00 10,9 C 95 % 1018,9 hPa 0,0 l/m N 0,00 h 0 W/m 1,6 km/h (1 Bft)
30.09.2012 22:00 10,8 C 96 % 1018,7 hPa 0,0 l/m N 0,00 h 0 W/m 2,3 km/h (1 Bft)
30.09.2012 23:00 10,8 C 96 % 1018,2 hPa 0,0 l/m N 0,00 h 0 W/m 2,5 km/h (1 Bft)
Min-Datum _ 29.09.12 25.09.12 26.09.12 - - - - 24.09.12
_ Min-Zeit 03:50 14:30 05:05 - - - - 00:00
Minimum _ 6,3 C 42 % 998,7 hPa - - - - 0,0 km/h (0 Bft)
Max-Datum _ 25.09.12 29.09.12 30.09.12 27.09.12 - 24.09.12 27.09.12 24.09.12
_ Max-Zeit 14:25 07:50 10:15 02:50 - 14:15 12:30 17:30
Maximum _ 21,7 C 100 % 1020,5 hPa 6,4 l/m - 0,08 h 888 W/m 37,0 km/h
SW (5 Bft)
Durchschnitt _ 11,8 C 87 % 1009,9 hPa #22,2 l/m W-SW #27:35 h 192 W/m 7,8 km/h (2 Bft)